Time;durP1;ratioP1;P1;durP2;ratioP2;P2;SDS_P1;SDS_P2;PMS_P1;PMS_P2;Temp;Humidity;BMP_temperature;BMP_pressure;BME280_temperature;BME280_humidity;BME280_pressure;Samples;Min_cycle;Max_cycle;Signal;HPM_P1;HPM_P2
2022/01/03 00:00:33;;;;;;;13.55;2.78;;;;;;;9.75;86.93;100984.69;2097849;28;20041;-65
2022/01/03 00:01:36;;;;;;;13.05;3.80;;;;;;;9.74;86.40;100983.81;2098068;28;20075;-65
2022/01/03 00:02:37;;;;;;;16.48;3.47;;;;;;;9.71;87.12;100983.94;2106546;28;20020;-64
2022/01/03 00:03:38;;;;;;;13.95;2.80;;;;;;;9.70;86.67;100971.81;2107182;28;20031;-64
2022/01/03 00:04:38;;;;;;;14.57;3.63;;;;;;;9.68;86.84;100983.22;2098127;28;20028;-66
2022/01/03 00:05:40;;;;;;;11.57;2.60;;;;;;;9.65;87.12;100984.19;2098027;28;20036;-65
2022/01/03 00:06:40;;;;;;;13.00;2.90;;;;;;;9.61;87.24;100983.41;2098075;28;20065;-65
2022/01/03 00:07:43;;;;;;;14.67;3.60;;;;;;;9.57;87.20;100989.66;2106471;28;20020;-63
2022/01/03 00:08:44;;;;;;;17.15;2.63;;;;;;;9.56;87.82;100995.78;2106984;28;20149;-65
2022/01/03 00:09:44;;;;;;;15.05;3.03;;;;;;;9.53;87.58;100995.88;2107107;28;20020;-66
2022/01/03 00:10:45;;;;;;;17.77;3.50;;;;;;;9.52;88.00;100994.19;2107234;28;20043;-64
2022/01/03 00:11:46;;;;;;;14.73;3.00;;;;;;;9.53;87.57;100999.34;2107050;28;20092;-66
2022/01/03 00:12:47;;;;;;;15.15;3.88;;;;;;;9.59;87.84;100997.41;2098047;28;20032;-66
2022/01/03 00:13:50;;;;;;;14.30;3.75;;;;;;;9.60;88.29;101001.72;2098197;28;20368;-66
2022/01/03 00:14:50;;;;;;;10.55;2.47;;;;;;;9.56;88.11;100994.91;2107062;28;20020;-65
2022/01/03 00:15:52;;;;;;;11.00;3.35;;;;;;;9.52;88.04;100994.19;2106244;28;20126;-64
2022/01/03 00:16:52;;;;;;;15.98;3.13;;;;;;;9.53;87.96;101004.56;2106425;28;20051;-65
2022/01/03 00:17:53;;;;;;;15.83;2.67;;;;;;;9.54;87.95;100984.53;2107004;28;20012;-66
2022/01/03 00:18:54;;;;;;;11.30;2.90;;;;;;;9.56;87.51;100995.78;2106940;28;20008;-67
2022/01/03 00:19:54;;;;;;;12.35;3.17;;;;;;;9.57;87.09;101001.81;2097882;28;20505;-65
2022/01/03 00:20:59;;;;;;;16.37;3.63;;;;;;;9.56;87.54;100994.91;2098035;28;20024;-67
2022/01/03 00:22:05;;;;;;;11.73;2.92;;;;;;;9.58;88.16;101003.53;2097800;28;20057;-66
2022/01/03 00:23:08;;;;;;;12.35;3.22;;;;;;;9.58;88.09;100993.13;2098785;28;20025;-63
2022/01/03 00:24:10;;;;;;;18.67;3.22;;;;;;;9.57;87.62;101001.81;2106456;28;20031;-67
2022/01/03 00:25:19;;;;;;;15.98;3.50;;;;;;;9.52;87.24;100997.63;2106906;28;20142;-64
2022/01/03 00:26:24;;;;;;;12.88;3.25;;;;;;;9.58;87.66;101003.53;2106820;28;20024;-65
2022/01/03 00:27:33;;;;;;;11.25;3.00;;;;;;;9.61;87.00;101013.84;2106879;28;20023;-66
2022/01/03 00:28:36;;;;;;;11.65;3.63;;;;;;;9.60;87.24;101006.91;2106635;28;20093;-66
2022/01/03 00:29:46;;;;;;;11.07;3.13;;;;;;;9.59;87.46;101005.22;2106825;28;20088;-64
2022/01/03 00:30:50;;;;;;;12.20;3.30;;;;;;;9.63;87.05;101019.84;2097827;28;20027;-65
2022/01/03 00:31:53;;;;;;;11.88;3.00;;;;;;;9.64;86.93;101009.38;2089924;28;20532;-67
2022/01/03 00:32:54;;;;;;;18.27;3.33;;;;;;;9.68;86.27;101020.53;2098261;28;20497;-64
2022/01/03 00:33:56;;;;;;;11.07;2.83;;;;;;;9.70;86.55;101013.50;2097840;28;20040;-66
2022/01/03 00:34:57;;;;;;;18.15;3.22;;;;;;;9.67;86.78;101008.41;2089700;28;20084;-66
2022/01/03 00:36:00;;;;;;;18.30;3.85;;;;;;;9.65;86.97;101002.41;2097891;28;20024;-65
2022/01/03 00:37:01;;;;;;;15.88;3.35;;;;;;;9.63;86.79;101006.81;2097735;28;20020;-63
2022/01/03 00:38:02;;;;;;;9.68;2.50;;;;;;;9.64;86.60;101014.59;2097958;28;20114;-66
2022/01/03 00:39:05;;;;;;;14.95;3.38;;;;;;;9.64;87.12;101011.97;2106834;28;20099;-63
2022/01/03 00:40:06;;;;;;;13.00;3.63;;;;;;;9.66;87.28;101014.53;2097724;28;20134;-64
2022/01/03 00:41:06;;;;;;;12.80;3.13;;;;;;;9.68;86.79;101019.69;2097920;28;20237;-64
2022/01/03 00:42:06;;;;;;;11.73;2.30;;;;;;;9.68;86.86;101015.31;2097817;28;20031;-64
2022/01/03 00:43:07;;;;;;;13.90;3.10;;;;;;;9.70;87.09;101013.50;2097842;28;20561;-66
2022/01/03 00:44:07;;;;;;;10.47;3.87;;;;;;;9.72;85.72;101006.47;2106805;28;20107;-66
2022/01/03 00:45:08;;;;;;;10.88;3.00;;;;;;;9.72;86.72;101010.84;2106879;28;20040;-66
2022/01/03 00:46:09;;;;;;;11.63;3.00;;;;;;;9.71;86.63;101001.34;2106695;28;20042;-66
2022/01/03 00:47:10;;;;;;;11.37;2.90;;;;;;;9.74;85.80;101007.28;2106816;28;20024;-66
2022/01/03 00:48:12;;;;;;;15.70;3.58;;;;;;;9.73;85.80;101009.94;2106867;28;20020;-68
2022/01/03 00:49:12;;;;;;;15.30;3.60;;;;;;;9.74;85.44;101004.69;2106852;28;20444;-64
2022/01/03 00:50:15;;;;;;;11.88;2.70;;;;;;;9.74;86.08;100991.66;2097764;28;20039;-66
2022/01/03 00:51:19;;;;;;;12.45;3.28;;;;;;;9.72;85.48;101003.03;2097827;28;20413;-65
2022/01/03 00:52:19;;;;;;;11.65;3.38;;;;;;;9.69;86.23;101001.41;2098303;28;20024;-66
2022/01/03 00:53:20;;;;;;;17.07;3.67;;;;;;;9.63;86.52;101001.59;2106873;28;20058;-63
2022/01/03 00:54:20;;;;;;;10.10;3.10;;;;;;;9.62;86.94;100984.28;2106826;28;20061;-67
2022/01/03 00:55:20;;;;;;;18.77;4.10;;;;;;;9.59;87.03;100995.66;2097813;28;20028;-66
2022/01/03 00:56:29;;;;;;;16.20;4.07;;;;;;;9.58;86.76;100998.31;2097866;28;20024;-66
2022/01/03 00:57:48;;;;;;;15.68;3.67;;;;;;;9.59;86.73;100994.81;2106755;28;20498;-67
2022/01/03 00:59:09;;;;;;;12.57;3.30;;;;;;;9.59;86.16;101005.22;2106597;28;20032;-66
2022/01/03 01:00:10;;;;;;;16.35;3.67;;;;;;;9.62;86.50;100999.91;2106678;28;20020;-64
2022/01/03 01:01:10;;;;;;;;;;;;;;;9.64;86.28;101013.72;2107091;28;20128;-65
2022/01/03 01:02:13;;;;;;;14.18;3.28;;;;;;;9.63;86.09;100999.84;2106844;28;20345;-66
2022/01/03 01:03:19;;;;;;;11.27;3.28;;;;;;;9.69;85.44;101004.00;2106685;28;20459;-66
2022/01/03 01:04:21;;;;;;;14.60;3.55;;;;;;;9.69;86.03;101011.81;2106671;28;20036;-65
2022/01/03 01:05:23;;;;;;;12.43;3.40;;;;;;;9.70;85.78;100997.88;2106621;28;20043;-65
2022/01/03 01:06:24;;;;;;;;;;;;;;;9.70;85.67;100997.00;2107006;28;20035;-64
2022/01/03 01:07:29;;;;;;;10.73;2.63;;;;;;;9.68;85.85;101004.88;2106914;28;19912;-66
2022/01/03 01:08:33;;;;;;;14.85;3.53;;;;;;;9.72;84.93;101005.63;2106651;28;20028;-65
2022/01/03 01:09:34;;;;;;;17.92;4.50;;;;;;;9.70;85.48;101003.09;2106540;28;20096;-63
2022/01/03 01:10:37;;;;;;;15.43;3.17;;;;;;;9.71;85.50;100999.56;2106601;28;20016;-65
2022/01/03 01:11:42;;;;;;;12.90;3.38;;;;;;;9.69;85.64;101011.81;2106628;28;20035;-66
2022/01/03 01:12:43;;;;;;;10.23;3.70;;;;;;;9.66;86.53;100997.13;2106519;28;20424;-64
2022/01/03 01:13:44;;;;;;;14.20;3.28;;;;;;;9.67;86.33;100977.13;2106636;28;20496;-63
2022/01/03 01:14:49;;;;;;;14.07;3.67;;;;;;;9.66;86.63;101009.31;2106756;28;20069;-65
2022/01/03 01:15:49;;;;;;;16.65;3.78;;;;;;;9.67;86.11;101005.78;2106685;28;20020;-65
2022/01/03 01:16:49;;;;;;;10.73;2.43;;;;;;;9.64;86.78;101004.16;2097630;28;20020;-66
2022/01/03 01:17:53;;;;;;;11.63;3.30;;;;;;;9.62;86.21;101002.53;2089380;28;20021;-65
2022/01/03 01:18:54;;;;;;;14.07;3.88;;;;;;;9.65;86.23;101000.63;2098013;28;20393;-66
2022/01/03 01:19:56;;;;;;;13.43;3.47;;;;;;;9.68;86.70;101001.44;2097577;28;20025;-66
2022/01/03 01:20:57;;;;;;;11.65;3.47;;;;;;;9.65;86.60;101010.22;2097817;28;20452;-65
2022/01/03 01:21:57;;;;;;;8.10;2.80;;;;;;;9.65;86.34;101005.03;2097707;28;20166;-65
2022/01/03 01:22:57;;;;;;;8.97;2.13;;;;;;;9.69;87.11;101006.59;2089226;28;20064;-65
2022/01/03 01:23:58;;;;;;;9.90;3.00;;;;;;;9.67;86.95;101013.63;2097769;28;20033;-68
2022/01/03 01:25:25;;;;;;;15.98;3.55;;;;;;;9.62;86.94;101010.34;2106641;28;20106;-66
2022/01/03 01:27:49;;;;;;;12.88;2.80;;;;;;;9.55;87.50;101003.63;2106697;28;20481;-66
2022/01/03 01:28:49;;;;;;;9.40;3.38;;;;;;;9.52;87.48;101015.03;2106415;28;20139;-66
2022/01/03 01:29:50;;;;;;;10.83;3.03;;;;;;;9.51;87.50;101015.91;2106620;28;20344;-63
2022/01/03 01:30:55;;;;;;;11.80;3.53;;;;;;;9.52;87.67;101015.84;2106671;28;20371;-66
2022/01/03 01:32:02;;;;;;;17.63;3.80;;;;;;;9.50;87.54;101027.22;2097484;28;20021;-65
2022/01/03 01:33:12;;;;;;;10.23;3.47;;;;;;;9.47;87.87;101025.59;2098569;28;20512;-63
2022/01/03 01:34:17;;;;;;;11.02;3.72;;;;;;;9.45;87.85;101030.03;2097525;28;20102;-64
2022/01/03 01:35:23;;;;;;;10.00;3.17;;;;;;;9.43;87.75;101031.81;2098221;28;20032;-65
2022/01/03 01:36:28;;;;;;;10.57;3.03;;;;;;;9.42;87.95;101035.34;2107815;28;20024;-65
2022/01/03 01:37:28;;;;;;;12.52;3.25;;;;;;;9.42;87.77;101030.13;2108284;28;20346;-65
2022/01/03 01:38:32;;;;;;;7.37;3.13;;;;;;;9.41;88.07;101033.59;2108314;28;20034;-66
2022/01/03 01:39:32;;;;;;;11.23;3.00;;;;;;;9.38;88.47;101041.56;2108304;28;20080;-67
2022/01/03 01:40:33;;;;;;;14.53;3.70;;;;;;;9.38;88.16;101033.75;2108273;28;20535;-65
2022/01/03 01:41:37;;;;;;;15.75;3.42;;;;;;;9.41;87.82;101038.81;2108291;28;20020;-65
2022/01/03 01:42:45;;;;;;;14.60;3.25;;;;;;;9.43;88.33;101037.03;2108277;28;20024;-66
2022/01/03 01:43:47;;;;;;;10.70;2.97;;;;;;;9.50;87.54;101033.31;2108218;28;20016;-65
2022/01/03 01:44:50;;;;;;;10.20;2.80;;;;;;;9.49;87.31;101051.59;2108218;28;20093;-64
2022/01/03 01:45:51;;;;;;;11.88;3.10;;;;;;;9.50;87.27;101037.66;2108123;28;20053;-64
2022/01/03 01:46:55;;;;;;;11.88;3.10;;;;;;;9.49;87.25;101047.25;2099170;28;20025;-65
2022/01/03 01:47:58;;;;;;;14.82;4.30;;;;;;;9.46;87.62;101039.53;2099501;28;20029;-66
2022/01/03 01:49:04;;;;;;;14.13;3.20;;;;;;;9.37;87.58;101037.22;2099096;28;20024;-67
2022/01/03 01:50:05;;;;;;;11.50;3.08;;;;;;;9.36;87.83;101036.38;2099837;28;20055;-63
2022/01/03 01:51:06;;;;;;;;;;;;;;;9.37;88.01;101037.22;2108579;28;20039;-65
2022/01/03 01:52:14;;;;;;;19.20;3.43;;;;;;;9.35;87.96;101033.84;2107526;28;19912;-66
2022/01/03 01:53:21;;;;;;;13.60;3.40;;;;;;;9.31;88.12;101038.28;2099009;28;20035;-66
2022/01/03 01:54:36;;;;;;;18.25;3.90;;;;;;;9.30;88.33;101035.75;2099897;28;20026;-67
2022/01/03 01:55:43;;;;;;;12.63;3.40;;;;;;;9.24;88.62;101036.81;2108158;28;20055;-65
2022/01/03 01:57:08;;;;;;;15.30;3.08;;;;;;;9.18;89.15;101030.06;2108136;28;20034;-65
2022/01/03 01:58:28;;;;;;;13.63;3.15;;;;;;;9.16;88.85;101039.66;2099004;28;20044;-66
2022/01/03 01:59:44;;;;;;;12.70;3.10;;;;;;;9.15;88.96;101037.97;2101648;28;20028;-64
2022/01/03 02:00:49;;;;;;;19.52;3.80;;;;;;;9.11;89.09;101036.38;2107643;28;20057;-65
2022/01/03 02:02:08;;;;;;;15.13;3.17;;;;;;;8.99;89.73;101035.00;2108011;28;20362;-66
2022/01/03 02:03:26;;;;;;;10.93;3.20;;;;;;;8.96;89.63;101035.97;2108000;28;20059;-64
2022/01/03 02:04:47;;;;;;;10.75;2.78;;;;;;;8.99;89.83;101043.69;2107321;28;20020;-64
2022/01/03 02:05:56;;;;;;;;;;;;;;;8.97;89.98;101026.41;2107970;28;20055;-66
2022/01/03 02:07:13;;;;;;;9.05;2.92;;;;;;;9.02;89.58;101033.16;2108023;28;19973;-66
2022/01/03 02:08:46;;;;;;;8.80;2.60;;;;;;;9.10;89.53;101040.72;2108055;28;20114;-65
2022/01/03 02:10:06;;;;;;;12.45;2.83;;;;;;;9.04;89.52;101034.88;2099578;28;20500;-64
2022/01/03 02:11:25;;;;;;;16.75;2.90;;;;;;;9.01;89.72;101041.03;2107308;28;20035;-66
2022/01/03 02:12:26;;;;;;;16.13;3.05;;;;;;;8.95;89.67;101042.06;2098951;28;20086;-66
2022/01/03 02:13:28;;;;;;;15.43;3.42;;;;;;;8.95;90.15;101041.22;2099100;28;20549;-66
2022/01/03 02:14:35;;;;;;;13.13;3.33;;;;;;;8.91;90.07;101043.06;2107927;28;20510;-66
2022/01/03 02:15:37;;;;;;;16.55;3.17;;;;;;;8.92;90.01;101044.78;2108049;28;20648;-66
2022/01/03 02:16:38;;;;;;;16.60;3.22;;;;;;;8.92;89.80;101049.97;2107980;28;20012;-66
2022/01/03 02:17:39;;;;;;;12.48;2.70;;;;;;;8.91;90.14;101043.06;2107982;28;20388;-66
2022/01/03 02:18:40;;;;;;;9.77;2.83;;;;;;;8.86;90.37;101042.38;2107949;28;20027;-66
2022/01/03 02:19:40;;;;;;;11.57;2.77;;;;;;;8.79;90.44;101051.28;2107989;28;20018;-67
2022/01/03 02:20:41;;;;;;;13.87;3.27;;;;;;;8.74;90.59;101044.47;2098933;28;20278;-65
2022/01/03 02:21:41;;;;;;;15.43;3.28;;;;;;;8.74;90.99;101044.47;2098908;28;20059;-66
2022/01/03 02:22:43;;;;;;;9.43;2.87;;;;;;;8.83;90.77;101050.28;2098879;28;20028;-66
2022/01/03 02:23:43;;;;;;;18.73;4.07;;;;;;;8.84;90.49;101046.78;2099025;28;20412;-65
2022/01/03 02:24:44;;;;;;;15.57;3.20;;;;;;;8.83;90.25;101035.50;2107880;28;20051;-67
2022/01/03 02:25:44;;;;;;;17.50;3.63;;;;;;;8.85;90.14;101046.72;2107946;28;20016;-66
2022/01/03 02:26:44;;;;;;;13.10;3.63;;;;;;;8.78;90.57;101047.81;2107864;28;20051;-66
2022/01/03 02:27:46;;;;;;;13.23;3.73;;;;;;;8.73;90.66;101045.34;2107860;28;20314;-66
2022/01/03 02:28:47;;;;;;;14.95;3.65;;;;;;;8.75;90.37;101043.56;2107687;28;20048;-64
2022/01/03 02:29:47;;;;;;;14.57;3.00;;;;;;;8.76;90.60;101040.06;2107901;28;20012;-64
2022/01/03 02:30:48;;;;;;;13.10;3.20;;;;;;;8.75;90.73;101045.31;2107863;28;20028;-66
2022/01/03 02:31:48;;;;;;;10.48;2.13;;;;;;;8.72;90.55;101040.19;2107884;28;20107;-66
2022/01/03 02:32:48;;;;;;;10.80;2.93;;;;;;;8.67;91.17;101042.97;2107864;28;20098;-65
2022/01/03 02:33:50;;;;;;;10.33;2.70;;;;;;;8.65;90.67;101044.75;2098789;28;20024;-65
2022/01/03 02:34:50;;;;;;;9.93;2.70;;;;;;;8.60;91.30;101042.31;2090576;28;20538;-65
2022/01/03 02:35:50;;;;;;;14.43;2.80;;;;;;;8.61;91.11;101045.72;2098769;28;20027;-63
2022/01/03 02:36:51;;;;;;;16.97;3.07;;;;;;;8.68;91.23;101044.66;2107677;28;20485;-66
2022/01/03 02:37:53;;;;;;;15.45;2.70;;;;;;;8.69;90.75;101037.72;2107758;28;20048;-67
2022/01/03 02:38:53;;;;;;;11.43;2.88;;;;;;;8.64;91.00;101048.25;2107797;28;20393;-66
2022/01/03 02:39:55;;;;;;;16.70;2.90;;;;;;;8.63;91.12;101043.94;2107858;28;20046;-66
2022/01/03 02:40:56;;;;;;;11.73;2.63;;;;;;;8.58;91.46;101045.81;2107760;28;20016;-63
2022/01/03 02:41:56;;;;;;;12.80;2.37;;;;;;;8.56;91.44;101040.69;2107801;28;20039;-65
2022/01/03 02:42:56;;;;;;;11.70;2.80;;;;;;;8.64;91.27;101048.25;2107795;28;20035;-64
2022/01/03 02:43:56;;;;;;;11.03;2.03;;;;;;;8.67;90.87;101050.75;2098724;28;20041;-66
2022/01/03 02:45:10;;;;;;;11.43;1.77;;;;;;;8.67;90.99;101042.97;2098807;28;20039;-65
2022/01/03 02:46:10;;;;;;;9.93;3.08;;;;;;;8.70;90.93;101048.06;2107604;28;20077;-65
2022/01/03 02:47:11;;;;;;;12.83;2.37;;;;;;;8.67;91.16;101042.97;2107303;28;20476;-65
2022/01/03 02:48:12;;;;;;;13.07;2.17;;;;;;;8.71;90.63;101048.91;2107616;28;20020;-65
2022/01/03 02:49:12;;;;;;;13.68;2.90;;;;;;;8.80;90.70;101050.38;2107674;28;20073;-66
2022/01/03 02:50:15;;;;;;;6.50;2.30;;;;;;;8.81;90.68;101050.31;2107742;28;20024;-66
2022/01/03 02:51:15;;;;;;;11.07;2.80;;;;;;;8.83;90.82;101045.06;2107672;28;20039;-64
2022/01/03 02:52:15;;;;;;;10.97;2.53;;;;;;;8.85;90.36;101045.88;2107653;28;20032;-63
2022/01/03 02:53:16;;;;;;;15.90;2.90;;;;;;;8.85;90.03;101043.25;2107676;28;20282;-66
2022/01/03 02:54:16;;;;;;;16.20;3.03;;;;;;;8.82;90.00;101043.34;2107625;28;20024;-65
2022/01/03 02:55:17;;;;;;;11.13;2.63;;;;;;;8.80;90.53;101048.63;2107696;28;20026;-66
2022/01/03 02:56:17;;;;;;;;;;;;;;;8.79;90.45;101043.47;2108091;28;20016;-64
2022/01/03 02:57:23;;;;;;;13.70;2.20;;;;;;;8.73;90.61;101037.53;2106986;28;19912;-62
2022/01/03 02:58:23;;;;;;;10.43;2.63;;;;;;;8.71;90.68;101047.16;2107090;28;20282;-63
2022/01/03 02:59:23;;;;;;;12.10;2.63;;;;;;;8.69;90.83;101043.75;2106942;28;20028;-64
2022/01/03 03:00:29;;;;;;;8.37;2.63;;;;;;;8.73;90.64;101042.75;2106966;28;20038;-64
2022/01/03 03:01:29;;;;;;;16.65;2.88;;;;;;;8.74;90.82;101044.47;2107557;28;20027;-66
2022/01/03 03:02:29;;;;;;;14.90;2.73;;;;;;;8.72;90.79;101042.78;2107591;28;20050;-66
2022/01/03 03:03:30;;;;;;;7.97;2.20;;;;;;;8.68;91.00;101047.25;2107511;28;20105;-65
2022/01/03 03:04:31;;;;;;;11.68;3.17;;;;;;;8.69;91.27;101045.50;2107614;28;20160;-65
2022/01/03 03:05:31;;;;;;;14.00;2.85;;;;;;;8.61;91.10;101044.00;2107578;28;20346;-66
2022/01/03 03:06:31;;;;;;;15.00;2.90;;;;;;;8.55;91.84;101044.19;2107491;28;20024;-65
2022/01/03 03:07:32;;;;;;;15.43;2.47;;;;;;;8.59;91.60;101052.75;2107546;28;20115;-66
2022/01/03 03:08:32;;;;;;;11.13;2.58;;;;;;;8.64;91.38;101053.44;2098480;28;20039;-66
2022/01/03 03:09:33;;;;;;;18.40;3.60;;;;;;;8.63;91.48;101050.00;2098526;28;20020;-66
2022/01/03 03:10:33;;;;;;;12.53;2.63;;;;;;;8.63;91.45;101046.56;2098497;28;20044;-66
2022/01/03 03:11:35;;;;;;;13.50;3.10;;;;;;;8.60;91.40;101051.84;2098529;28;20079;-66
2022/01/03 03:12:36;;;;;;;13.95;3.35;;;;;;;8.56;91.77;101050.25;2107302;28;20032;-65
2022/01/03 03:13:37;;;;;;;12.13;3.03;;;;;;;8.60;91.67;101055.31;2107550;28;20027;-65
2022/01/03 03:14:38;;;;;;;15.37;3.23;;;;;;;8.60;91.91;101044.03;2107467;28;20107;-66
2022/01/03 03:15:39;;;;;;;14.65;2.75;;;;;;;8.62;91.75;101050.03;2107406;28;20032;-64
2022/01/03 03:16:40;;;;;;;15.47;3.17;;;;;;;8.64;91.37;101050.84;2107429;28;20012;-67
2022/01/03 03:17:42;;;;;;;11.02;3.20;;;;;;;8.66;91.70;101049.06;2098347;28;20091;-65
2022/01/03 03:18:44;;;;;;;12.75;2.78;;;;;;;8.68;91.49;101049.84;2098458;28;20521;-64
2022/01/03 03:19:49;;;;;;;12.32;3.08;;;;;;;8.62;91.61;101056.09;2106775;28;20020;-65
2022/01/03 03:20:49;;;;;;;15.90;3.65;;;;;;;8.62;91.57;101057.84;2107326;28;20032;-66
2022/01/03 03:21:49;;;;;;;10.13;2.38;;;;;;;8.61;92.06;101048.34;2107330;28;20450;-67
2022/01/03 03:22:50;;;;;;;13.97;2.50;;;;;;;8.64;91.93;101053.44;2107361;28;20031;-66
2022/01/03 03:23:50;;;;;;;10.65;2.83;;;;;;;8.70;91.31;101045.47;2107366;28;20012;-64
2022/01/03 03:24:58;;;;;;;13.67;3.47;;;;;;;8.74;91.28;101049.69;2098297;28;20026;-66
2022/01/03 03:25:58;;;;;;;16.60;2.83;;;;;;;8.75;91.25;101051.38;2099285;28;20523;-63
2022/01/03 03:26:58;;;;;;;14.53;2.13;;;;;;;8.82;91.17;101045.94;2107291;28;20054;-63
2022/01/03 03:28:02;;;;;;;14.73;3.30;;;;;;;8.84;90.89;101045.03;2107274;28;20035;-66
2022/01/03 03:29:02;;;;;;;10.20;2.72;;;;;;;8.89;90.44;101057.88;2107295;28;20043;-66
2022/01/03 03:30:04;;;;;;;14.57;2.87;;;;;;;8.93;90.75;101053.44;2098224;28;20052;-64
2022/01/03 03:31:05;;;;;;;17.25;3.90;;;;;;;8.97;90.54;101055.88;2098422;28;20241;-65
2022/01/03 03:32:05;;;;;;;14.63;3.95;;;;;;;9.01;90.00;101057.47;2098328;28;20025;-64
2022/01/03 03:33:11;;;;;;;15.33;2.53;;;;;;;9.04;90.45;101051.34;2098413;28;20028;-66
2022/01/03 03:34:12;;;;;;;11.82;3.53;;;;;;;9.04;90.01;101055.69;2107297;28;20388;-67
2022/01/03 03:35:13;;;;;;;15.10;3.23;;;;;;;9.05;90.12;101058.25;2107302;28;20024;-66
2022/01/03 03:36:14;;;;;;;17.40;3.35;;;;;;;9.06;90.23;101053.91;2107256;28;20443;-66
2022/01/03 03:37:15;;;;;;;16.87;3.10;;;;;;;9.09;90.69;101057.25;2098209;28;20024;-66
2022/01/03 03:38:16;;;;;;;17.73;3.03;;;;;;;9.11;90.47;101060.63;2098515;28;20371;-66
2022/01/03 03:39:17;;;;;;;16.17;3.15;;;;;;;9.13;89.98;101055.38;2107312;28;20115;-66
2022/01/03 03:40:17;;;;;;;9.23;2.80;;;;;;;9.11;90.38;101062.41;2107329;28;20032;-66
2022/01/03 03:41:18;;;;;;;12.48;2.53;;;;;;;9.09;90.25;101065.06;2107274;28;20024;-64
2022/01/03 03:42:19;;;;;;;17.80;3.13;;;;;;;9.11;90.42;101057.19;2107320;28;20063;-66
2022/01/03 03:43:20;;;;;;;19.50;3.95;;;;;;;9.09;90.51;101059.84;2107328;28;20020;-68
2022/01/03 03:44:20;;;;;;;11.95;2.58;;;;;;;9.11;90.39;101052.00;2098163;28;20432;-65
2022/01/03 03:45:20;;;;;;;12.60;2.40;;;;;;;9.17;90.62;101048.34;2098326;28;20028;-63
2022/01/03 03:46:22;;;;;;;16.87;2.97;;;;;;;9.21;89.95;101055.13;2106393;28;20028;-63
2022/01/03 03:47:22;;;;;;;14.10;2.50;;;;;;;9.21;89.68;101053.38;2106628;28;20396;-64
2022/01/03 03:48:23;;;;;;;16.42;3.33;;;;;;;9.21;89.78;101032.53;2107217;28;20024;-63
2022/01/03 03:49:23;;;;;;;15.63;3.07;;;;;;;9.20;89.61;101054.28;2107155;28;20064;-65
2022/01/03 03:50:25;;;;;;;19.23;3.43;;;;;;;9.14;90.62;101046.69;2107222;28;20039;-65
2022/01/03 03:51:25;;;;;;;16.73;3.42;;;;;;;9.11;90.36;101057.19;2107140;28;20093;-65
2022/01/03 03:52:25;;;;;;;19.17;3.53;;;;;;;9.05;90.30;101053.03;2107279;28;20426;-65
2022/01/03 03:53:26;;;;;;;16.15;2.83;;;;;;;9.04;90.24;101048.75;2107231;28;20024;-64
2022/01/03 03:54:26;;;;;;;12.77;2.60;;;;;;;9.00;90.91;101053.19;2107214;28;20035;-66
2022/01/03 03:55:27;;;;;;;12.33;3.73;;;;;;;8.98;90.74;101048.94;2107121;28;20036;-66
2022/01/03 03:56:28;;;;;;;14.75;3.17;;;;;;;8.94;91.18;101042.97;2107164;28;20144;-65
2022/01/03 03:57:28;;;;;;;18.67;3.60;;;;;;;8.88;91.53;101037.97;2107246;28;20454;-65
2022/01/03 03:58:28;;;;;;;14.23;3.27;;;;;;;8.86;91.44;101042.38;2106568;28;20099;-66
2022/01/03 03:59:28;;;;;;;24.20;3.57;;;;;;;8.85;90.84;101043.25;2106952;28;20024;-66
2022/01/03 04:00:29;;;;;;;17.83;3.47;;;;;;;8.83;91.32;101043.31;2107097;28;20448;-67
2022/01/03 04:01:30;;;;;;;13.80;3.03;;;;;;;8.81;91.30;101044.25;2106961;28;20086;-66
2022/01/03 04:02:30;;;;;;;15.00;3.27;;;;;;;8.80;91.27;101039.97;2107091;28;20078;-65
2022/01/03 04:03:30;;;;;;;22.70;3.60;;;;;;;8.82;91.24;101038.16;2107086;28;20096;-64
2022/01/03 04:04:31;;;;;;;9.60;3.10;;;;;;;8.85;90.99;101035.44;2107105;28;20034;-66
2022/01/03 04:05:31;;;;;;;9.68;2.65;;;;;;;8.86;91.21;101037.19;2107090;28;20370;-66
2022/01/03 04:06:32;;;;;;;15.60;2.87;;;;;;;8.88;91.03;101040.56;2107017;28;20039;-66
2022/01/03 04:07:32;;;;;;;11.03;3.60;;;;;;;8.91;91.08;101045.69;2107083;28;20485;-65
2022/01/03 04:08:32;;;;;;;16.17;2.70;;;;;;;8.97;90.28;101040.25;2107085;28;20437;-66
2022/01/03 04:09:33;;;;;;;10.77;2.87;;;;;;;9.00;90.74;101040.16;2107073;28;20016;-66
2022/01/03 04:10:33;;;;;;;13.30;2.88;;;;;;;9.02;90.64;101033.16;2107047;28;20342;-66
2022/01/03 04:11:33;;;;;;;18.90;3.27;;;;;;;9.07;90.30;101035.59;2107042;28;20099;-64
2022/01/03 04:12:34;;;;;;;14.07;2.85;;;;;;;9.13;89.89;101034.53;2097943;28;20044;-66
2022/01/03 04:13:34;;;;;;;14.63;3.30;;;;;;;9.11;90.06;101031.16;2097970;28;20029;-67
2022/01/03 04:14:35;;;;;;;21.42;3.90;;;;;;;9.12;90.31;101033.72;2106988;28;20020;-66
2022/01/03 04:15:36;;;;;;;13.77;2.90;;;;;;;9.12;90.26;101025.03;2106936;28;20115;-66
2022/01/03 04:16:37;;;;;;;14.93;2.88;;;;;;;9.11;90.04;101021.56;2097930;28;20033;-65
2022/01/03 04:17:38;;;;;;;16.90;3.30;;;;;;;9.08;90.12;101026.06;2098052;28;20587;-66
2022/01/03 04:18:38;;;;;;;16.88;3.90;;;;;;;9.06;89.89;101028.69;2106891;28;20036;-64
2022/01/03 04:19:39;;;;;;;17.67;3.23;;;;;;;9.09;90.46;101022.53;2097901;28;20035;-67
2022/01/03 04:20:40;;;;;;;23.65;3.20;;;;;;;9.07;90.37;101024.34;2098013;28;20025;-65
2022/01/03 04:21:40;;;;;;;16.43;3.50;;;;;;;9.07;89.93;101019.16;2106948;28;20038;-66
2022/01/03 04:22:41;;;;;;;13.53;3.17;;;;;;;9.09;90.10;101025.13;2106967;28;20059;-66
2022/01/03 04:23:42;;;;;;;13.15;2.65;;;;;;;9.13;90.22;101026.72;2106910;28;20008;-67
2022/01/03 04:24:42;;;;;;;18.33;4.07;;;;;;;9.12;90.29;101032.84;2106916;28;20484;-67
2022/01/03 04:25:42;;;;;;;12.37;3.33;;;;;;;9.09;90.08;101022.53;2106731;28;20103;-66
2022/01/03 04:26:43;;;;;;;13.53;2.57;;;;;;;9.10;90.09;101025.09;2097747;28;20442;-65
2022/01/03 04:27:43;;;;;;;13.18;2.33;;;;;;;9.12;89.75;101017.22;2097968;28;20023;-66
2022/01/03 04:28:44;;;;;;;11.57;3.10;;;;;;;9.14;89.95;101016.28;2106000;28;20091;-67
2022/01/03 04:29:44;;;;;;;15.40;3.65;;;;;;;9.19;89.51;101023.94;2106327;28;20465;-67
2022/01/03 04:30:45;;;;;;;13.23;3.17;;;;;;;9.17;89.76;101010.09;2106917;28;20024;-67
2022/01/03 04:31:45;;;;;;;13.55;2.50;;;;;;;9.15;89.74;101022.34;2106840;28;20024;-66
2022/01/03 04:32:45;;;;;;;10.13;2.13;;;;;;;9.15;90.00;101014.53;2106828;28;20016;-65
2022/01/03 04:33:46;;;;;;;17.13;3.00;;;;;;;9.12;90.52;101012.88;2106827;28;20469;-65
2022/01/03 04:34:46;;;;;;;14.67;2.57;;;;;;;9.14;89.56;101015.44;2106829;28;20039;-65
2022/01/03 04:35:46;;;;;;;12.50;2.57;;;;;;;9.19;89.56;101010.91;2106808;28;20099;-67
2022/01/03 04:36:47;;;;;;;20.10;3.00;;;;;;;9.22;89.81;101018.63;2106851;28;20070;-64
2022/01/03 04:37:47;;;;;;;12.75;3.13;;;;;;;9.25;89.52;101012.47;2106829;28;20028;-66
2022/01/03 04:38:47;;;;;;;12.20;2.97;;;;;;;9.25;89.22;101013.31;2106871;28;20026;-67
2022/01/03 04:39:48;;;;;;;12.73;3.17;;;;;;;9.22;89.44;101013.44;2106888;28;20022;-67
2022/01/03 04:40:48;;;;;;;14.80;2.97;;;;;;;9.23;89.50;101024.66;2106743;28;20433;-64
2022/01/03 04:41:48;;;;;;;12.07;3.00;;;;;;;9.22;89.53;101023.84;2097776;28;20060;-65
2022/01/03 04:42:51;;;;;;;14.07;2.43;;;;;;;9.25;89.42;101015.94;2097944;28;20146;-65
2022/01/03 04:43:52;;;;;;;12.93;2.70;;;;;;;9.26;89.13;101024.56;2106822;28;20047;-65
2022/01/03 04:44:52;;;;;;;16.40;3.53;;;;;;;9.26;89.39;101024.56;2106777;28;20016;-63
2022/01/03 04:45:54;;;;;;;14.70;2.90;;;;;;;9.30;89.19;101013.16;2106784;28;20377;-66
2022/01/03 04:46:55;;;;;;;13.48;2.97;;;;;;;9.32;88.95;101019.16;2106805;28;20016;-66
2022/01/03 04:47:56;;;;;;;13.45;2.92;;;;;;;9.30;89.20;101013.16;2097674;28;20021;-66
2022/01/03 04:48:56;;;;;;;11.00;2.30;;;;;;;9.28;89.51;101013.19;2097755;28;20500;-66
2022/01/03 04:49:56;;;;;;;12.97;2.20;;;;;;;9.28;89.51;101017.56;2106096;28;20154;-65
2022/01/03 04:50:56;;;;;;;16.93;2.77;;;;;;;9.30;89.19;101009.72;2106772;28;20047;-64
2022/01/03 04:51:57;;;;;;;11.20;3.20;;;;;;;9.32;88.82;101013.97;2106702;28;20036;-65
2022/01/03 04:52:57;;;;;;;13.67;2.93;;;;;;;9.35;88.55;101015.59;2106761;28;20032;-66